Terminal Aerodrome Forecast
Issued by NWS

Home | Current Version | Previous Version | Text Only | Print | Product List | Glossary On
Versions: 1 2 3 4 5 6 7 8 9 10 11 12
000
FTUS43 KFGF 281700
TAFDVL
TAF
KDVL 281732Z 2818/0118 22008KT P6SM BKN070
     FM010000 25010KT P6SM BKN050
     FM010700 27011KT P6SM OVC040
     FM011400 31012KT 6SM -SN BKN025
      AMD LTD TO CLD VIS AND WIND=

USA.gov is the U.S. government's official web portal to all federal, state and local government web resources and services.